Time;durP1;ratioP1;P1;durP2;ratioP2;P2;SDS_P1;SDS_P2;PMS_P1;PMS_P2;Temp;Humidity;BMP_temperature;BMP_pressure;BME280_temperature;BME280_humidity;BME280_pressure;Samples;Min_cycle;Max_cycle;Signal;HPM_P1;HPM_P2
2022/10/26 00:02:24;;;;;;;3.80;1.40;;;13.40;99.90;;;;;;4959005;28;20407;-74
2022/10/26 00:04:50;;;;;;;2.90;1.10;;;13.30;99.90;;;;;;4953910;28;20477;-75
2022/10/26 00:07:15;;;;;;;4.78;1.42;;;13.30;99.90;;;;;;4953945;28;20451;-75
2022/10/26 00:09:41;;;;;;;2.60;1.10;;;13.30;99.90;;;;;;4969811;28;20443;-75
2022/10/26 00:12:06;;;;;;;2.63;1.50;;;13.30;99.90;;;;;;4956601;28;20494;-75
2022/10/26 00:14:32;;;;;;;3.15;1.30;;;13.40;99.90;;;;;;4953386;28;20575;-75
2022/10/26 00:16:57;;;;;;;2.57;1.20;;;13.40;99.90;;;;;;4967888;28;20417;-75
2022/10/26 00:19:23;;;;;;;3.07;1.40;;;13.40;99.90;;;;;;4954823;28;20405;-75
2022/10/26 00:21:49;;;;;;;2.35;1.70;;;13.30;99.90;;;;;;4954217;28;20417;-75
2022/10/26 00:24:14;;;;;;;3.20;1.05;;;13.40;99.90;;;;;;4951515;28;20410;-75
2022/10/26 00:26:40;;;;;;;2.00;1.30;;;13.30;99.90;;;;;;4954231;28;20428;-75
2022/10/26 00:29:06;;;;;;;4.07;1.20;;;13.20;99.90;;;;;;4972365;28;20392;-75
2022/10/26 00:31:31;;;;;;;1.10;1.00;;;13.10;99.90;;;;;;4954713;28;20493;-74
2022/10/26 00:33:57;;;;;;;0.90;0.90;;;13.10;99.90;;;;;;4956051;28;20439;-75
2022/10/26 00:36:25;;;;;;;3.55;1.10;;;13.10;99.90;;;;;;4953091;28;20458;-75
2022/10/26 00:38:52;;;;;;;5.60;1.70;;;13.10;99.90;;;;;;4952247;28;21120;-75
2022/10/26 00:41:21;;;;;;;2.27;1.40;;;13.10;99.90;;;;;;4967076;28;20959;-75
2022/10/26 00:43:47;;;;;;;1.70;1.10;;;13.10;99.90;;;;;;4947223;29;20423;-74
2022/10/26 00:46:20;;;;;;;3.37;1.00;;;13.10;99.90;;;;;;4951543;28;21105;-74
2022/10/26 00:48:50;;;;;;;4.53;1.20;;;13.10;99.90;;;;;;4952057;28;20417;-74
2022/10/26 00:51:24;;;;;;;3.47;1.70;;;13.10;99.90;;;;;;4952206;28;20398;-74
2022/10/26 00:53:50;;;;;;;1.95;1.20;;;13.00;99.90;;;;;;4933467;29;20876;-75
2022/10/26 00:56:16;;;;;;;2.47;1.10;;;13.10;99.90;;;;;;4933843;29;20874;-75
2022/10/26 00:58:43;;;;;;;2.90;1.17;;;13.00;99.90;;;;;;4947690;28;20768;-74
2022/10/26 01:01:08;;;;;;;4.28;1.60;;;13.00;99.90;;;;;;4950484;28;20496;-74
2022/10/26 01:03:35;;;;;;;3.50;1.50;;;13.00;99.90;;;;;;4951585;28;20485;-75
2022/10/26 01:06:02;;;;;;;4.20;1.30;;;12.90;99.90;;;;;;4952666;28;21127;-75
2022/10/26 01:08:29;;;;;;;3.80;1.30;;;12.90;99.90;;;;;;4951770;28;20429;-75
2022/10/26 01:10:56;;;;;;;2.70;1.50;;;12.70;99.90;;;;;;4952438;28;20428;-74
2022/10/26 01:13:24;;;;;;;2.65;1.20;;;12.70;99.90;;;;;;4952310;28;20418;-75
2022/10/26 01:16:18;;;;;;;3.50;1.27;;;12.90;99.90;;;;;;4951021;28;20916;-75
2022/10/26 01:19:16;;;;;;;3.20;1.20;;;13.10;99.90;;;;;;4945698;28;20433;-75
2022/10/26 01:21:48;;;;;;;3.38;1.38;;;13.20;99.90;;;;;;4967053;28;20394;-75
2022/10/26 01:24:25;;;;;;;3.83;1.30;;;13.20;99.90;;;;;;4962588;28;20442;-74
2022/10/26 01:27:19;;;;;;;1.60;1.15;;;13.40;99.90;;;;;;4951369;28;20772;-75
2022/10/26 01:30:10;;;;;;;2.10;1.30;;;13.30;99.90;;;;;;4946111;29;20438;-75
2022/10/26 01:33:02;;;;;;;2.13;1.07;;;13.40;99.90;;;;;;4950461;28;20460;-74
2022/10/26 01:36:01;;;;;;;3.70;1.27;;;13.40;99.90;;;;;;4957536;28;20408;-74
2022/10/26 01:38:41;;;;;;;2.05;1.10;;;13.60;99.90;;;;;;4962935;28;20401;-75
2022/10/26 01:41:19;;;;;;;3.78;1.80;;;13.60;99.90;;;;;;4951746;28;20421;-74
2022/10/26 01:43:57;;;;;;;3.75;1.60;;;13.60;99.90;;;;;;4952017;28;20425;-74
2022/10/26 01:46:26;;;;;;;3.80;1.20;;;13.70;99.90;;;;;;4951966;28;20434;-75
2022/10/26 01:48:56;;;;;;;5.32;1.30;;;13.60;99.90;;;;;;4950723;28;20508;-74
2022/10/26 01:51:24;;;;;;;3.03;1.10;;;13.50;99.90;;;;;;4948981;28;20766;-75
2022/10/26 01:53:49;;;;;;;4.28;1.30;;;13.60;99.90;;;;;;4955852;28;20406;-75
2022/10/26 01:56:25;;;;;;;3.43;1.70;;;13.70;99.90;;;;;;4950848;28;20828;-75
2022/10/26 01:58:59;;;;;;;1.88;0.90;;;13.70;99.90;;;;;;4951857;28;20436;-75
2022/10/26 02:01:51;;;;;;;2.20;1.10;;;13.80;99.90;;;;;;4951024;28;20457;-75
2022/10/26 02:04:35;;;;;;;2.90;1.00;;;13.70;99.90;;;;;;4949649;29;20512;-75
2022/10/26 02:07:27;;;;;;;2.10;1.10;;;14.00;99.90;;;;;;4966385;28;20858;-75
2022/10/26 02:10:06;;;;;;;3.67;1.20;;;14.10;99.90;;;;;;4952489;28;21066;-75
2022/10/26 02:13:03;;;;;;;2.70;1.10;;;14.00;99.90;;;;;;4964946;28;20791;-75
2022/10/26 02:15:40;;;;;;;3.20;1.17;;;13.80;99.90;;;;;;4978908;28;20448;-75
2022/10/26 02:18:27;;;;;;;3.70;1.23;;;13.80;99.90;;;;;;4947748;28;20907;-75
2022/10/26 02:20:56;;;;;;;3.78;1.20;;;13.80;99.90;;;;;;4951050;28;20416;-74
2022/10/26 02:23:25;;;;;;;2.13;1.30;;;13.70;99.90;;;;;;4955427;28;20914;-75
2022/10/26 02:25:55;;;;;;;2.38;1.40;;;13.80;99.90;;;;;;4951058;28;20509;-74
2022/10/26 02:28:27;;;;;;;4.60;1.80;;;13.70;99.90;;;;;;4951207;28;20911;-75
2022/10/26 02:30:56;;;;;;;3.65;1.63;;;13.80;99.90;;;;;;4954481;28;20504;-74
2022/10/26 02:33:24;;;;;;;3.40;1.40;;;13.80;99.90;;;;;;4955078;28;20425;-74
2022/10/26 02:35:53;;;;;;;2.58;1.25;;;13.60;99.90;;;;;;4955220;28;20433;-75
2022/10/26 02:38:20;;;;;;;4.40;1.55;;;13.60;99.90;;;;;;4954799;28;20460;-74
2022/10/26 02:40:50;;;;;;;3.10;1.30;;;13.50;99.90;;;;;;4955552;28;20397;-75
2022/10/26 02:43:20;;;;;;;2.78;1.50;;;13.50;99.90;;;;;;4971755;28;20442;-74
2022/10/26 02:45:51;;;;;;;2.70;1.30;;;13.50;99.90;;;;;;4974390;28;20420;-74
2022/10/26 02:48:17;;;;;;;2.58;1.90;;;13.50;99.90;;;;;;4960348;28;20806;-74
2022/10/26 02:51:00;;;;;;;1.50;1.40;;;13.50;99.90;;;;;;4954906;28;20394;-74
2022/10/26 02:53:34;;;;;;;2.63;1.90;;;13.40;99.90;;;;;;4953272;28;20473;-74
2022/10/26 02:56:15;;;;;;;2.78;1.48;;;13.40;99.90;;;;;;4955838;28;20432;-74
2022/10/26 02:58:45;;;;;;;5.15;1.58;;;13.40;99.90;;;;;;4935206;28;20400;-73
2022/10/26 03:01:12;;;;;;;2.40;1.40;;;13.50;99.90;;;;;;4969901;28;20468;-75
2022/10/26 03:03:37;;;;;;;2.08;1.50;;;13.50;99.90;;;;;;4954686;28;20390;-74
2022/10/26 03:06:03;;;;;;;3.75;2.00;;;13.50;99.90;;;;;;4952438;28;20489;-74
2022/10/26 03:08:28;;;;;;;3.05;1.67;;;13.50;99.90;;;;;;4954524;28;20401;-74
2022/10/26 03:10:54;;;;;;;1.77;1.30;;;13.60;99.90;;;;;;4955080;28;20851;-75
2022/10/26 03:13:19;;;;;;;3.53;1.70;;;13.60;99.90;;;;;;4954039;28;20460;-74
2022/10/26 03:15:45;;;;;;;2.00;1.40;;;13.70;99.90;;;;;;4954733;28;20429;-74
2022/10/26 03:18:10;;;;;;;5.63;1.63;;;13.80;99.90;;;;;;4954582;28;20421;-75
2022/10/26 03:20:36;;;;;;;3.37;1.60;;;13.70;99.90;;;;;;4972711;28;20392;-74
2022/10/26 03:23:01;;;;;;;4.80;1.65;;;13.70;99.90;;;;;;4952948;28;20420;-74
2022/10/26 03:25:27;;;;;;;3.07;1.50;;;13.70;99.90;;;;;;4955643;28;20430;-74
2022/10/26 03:27:57;;;;;;;3.30;1.50;;;13.70;99.90;;;;;;4959204;28;20473;-74
2022/10/26 03:30:23;;;;;;;2.67;1.57;;;13.90;99.90;;;;;;4953171;28;20410;-75
2022/10/26 03:32:48;;;;;;;3.00;1.70;;;13.90;99.90;;;;;;4954254;28;20412;-74
2022/10/26 03:35:14;;;;;;;3.50;1.60;;;13.80;99.90;;;;;;4954671;28;20451;-74
2022/10/26 03:37:39;;;;;;;3.22;1.70;;;13.90;99.90;;;;;;4958102;28;20408;-74
2022/10/26 03:40:05;;;;;;;1.80;1.40;;;13.80;99.90;;;;;;4953922;28;20830;-74
2022/10/26 03:42:38;;;;;;;6.30;1.80;;;13.90;99.90;;;;;;4953621;28;20484;-74
2022/10/26 03:45:05;;;;;;;1.67;1.50;;;13.80;99.90;;;;;;4969406;28;20406;-74
2022/10/26 03:47:30;;;;;;;4.13;1.70;;;13.80;99.90;;;;;;4954576;28;20409;-75
2022/10/26 03:49:56;;;;;;;2.10;1.40;;;13.90;99.90;;;;;;4956903;28;20445;-74
2022/10/26 03:52:23;;;;;;;3.10;1.50;;;13.90;99.90;;;;;;4952810;28;20791;-74
2022/10/26 03:54:49;;;;;;;2.00;1.70;;;13.90;99.90;;;;;;4953281;28;20412;-74
2022/10/26 03:57:14;;;;;;;3.90;1.90;;;13.90;99.90;;;;;;4953188;28;20963;-74
2022/10/26 03:59:40;;;;;;;2.58;1.70;;;13.90;99.90;;;;;;4954229;28;20386;-74
2022/10/26 04:02:05;;;;;;;3.33;1.60;;;13.90;99.90;;;;;;4984147;28;20412;-75
2022/10/26 04:04:31;;;;;;;4.57;1.70;;;13.90;99.90;;;;;;4953823;28;20775;-74
2022/10/26 04:06:57;;;;;;;2.90;1.58;;;13.90;99.90;;;;;;4959103;28;20404;-74
2022/10/26 04:09:22;;;;;;;3.40;2.00;;;13.90;99.90;;;;;;4957672;28;20421;-74
2022/10/26 04:11:48;;;;;;;6.80;2.20;;;13.90;99.90;;;;;;4954159;28;20417;-74
2022/10/26 04:14:13;;;;;;;3.53;1.70;;;13.80;99.90;;;;;;4953445;28;20406;-75
2022/10/26 04:16:39;;;;;;;3.90;1.90;;;13.90;99.90;;;;;;4954272;28;20406;-74
2022/10/26 04:19:05;;;;;;;4.97;2.30;;;13.80;99.90;;;;;;4954250;28;20386;-75
2022/10/26 04:21:32;;;;;;;2.40;1.80;;;13.80;99.90;;;;;;4962096;28;20421;-74
2022/10/26 04:23:57;;;;;;;3.40;2.00;;;13.80;99.90;;;;;;4953455;28;20473;-73
2022/10/26 04:26:23;;;;;;;3.80;1.90;;;13.80;99.90;;;;;;4953923;28;20394;-74
2022/10/26 04:28:48;;;;;;;6.07;1.90;;;13.80;99.90;;;;;;4951672;28;20402;-74
2022/10/26 04:31:14;;;;;;;5.65;2.05;;;13.90;99.90;;;;;;4954572;28;20514;-74
2022/10/26 04:33:39;;;;;;;3.80;1.80;;;13.80;99.90;;;;;;4967574;28;20496;-74
2022/10/26 04:36:05;;;;;;;2.90;1.90;;;13.80;99.90;;;;;;4955761;28;20902;-74
2022/10/26 04:38:31;;;;;;;4.65;2.10;;;13.80;99.90;;;;;;4955684;28;20929;-74
2022/10/26 04:40:56;;;;;;;3.70;2.10;;;13.90;99.90;;;;;;4953598;28;20398;-74
2022/10/26 04:43:22;;;;;;;4.60;2.00;;;14.00;99.90;;;;;;4973812;28;20939;-75
2022/10/26 04:45:47;;;;;;;5.27;2.33;;;14.00;99.90;;;;;;4952242;28;20501;-74
2022/10/26 04:48:13;;;;;;;5.30;2.50;;;14.00;99.90;;;;;;4950593;28;20412;-76
2022/10/26 04:50:39;;;;;;;3.00;2.10;;;14.00;99.90;;;;;;4950496;28;20398;-75
2022/10/26 04:53:06;;;;;;;4.07;2.30;;;14.10;99.90;;;;;;4971990;23;20453;-74
2022/10/26 04:55:33;;;;;;;2.78;1.90;;;14.10;99.90;;;;;;4946730;29;20495;-73
2022/10/26 04:57:58;;;;;;;4.90;2.30;;;14.00;99.90;;;;;;4952642;28;20852;-74
2022/10/26 05:00:24;;;;;;;6.80;2.20;;;14.00;99.90;;;;;;4951271;28;20492;-75
2022/10/26 05:02:50;;;;;;;7.00;2.53;;;14.00;99.90;;;;;;4946581;28;20450;-75
2022/10/26 05:05:16;;;;;;;2.97;1.93;;;14.00;99.90;;;;;;4949817;28;20414;-74
2022/10/26 05:07:41;;;;;;;4.13;2.40;;;14.00;99.90;;;;;;4950329;28;20802;-74
2022/10/26 05:10:07;;;;;;;5.40;2.50;;;14.10;99.90;;;;;;4949739;28;20492;-74
2022/10/26 05:12:33;;;;;;;6.95;2.38;;;14.10;99.90;;;;;;4948150;29;20430;-74
2022/10/26 05:14:58;;;;;;;3.60;2.23;;;14.00;99.90;;;;;;4950622;28;20776;-75
2022/10/26 05:17:25;;;;;;;2.63;1.90;;;14.10;99.90;;;;;;4950737;28;20983;-73
2022/10/26 05:19:59;;;;;;;6.00;2.10;;;14.00;99.90;;;;;;4965918;28;20414;-73
2022/10/26 05:22:24;;;;;;;4.60;1.80;;;13.90;99.90;;;;;;4940875;28;20757;-74
2022/10/26 05:24:50;;;;;;;4.30;2.20;;;13.90;99.90;;;;;;4935564;29;20388;-74
2022/10/26 05:27:15;;;;;;;5.63;2.37;;;13.80;99.90;;;;;;4951651;29;20405;-74
2022/10/26 05:29:41;;;;;;;3.60;2.20;;;13.80;99.90;;;;;;4950909;29;20410;-74
2022/10/26 05:32:06;;;;;;;4.60;2.20;;;13.80;99.90;;;;;;4949070;28;20425;-74
2022/10/26 05:34:32;;;;;;;2.23;1.70;;;14.00;99.90;;;;;;4951085;28;20481;-74
2022/10/26 05:36:57;;;;;;;2.80;2.40;;;14.00;99.90;;;;;;4950568;29;20776;-75
2022/10/26 05:39:23;;;;;;;3.23;2.00;;;14.00;99.90;;;;;;4951960;28;20420;-74
2022/10/26 05:41:48;;;;;;;3.37;1.90;;;14.00;99.90;;;;;;4952227;29;20410;-74
2022/10/26 05:44:14;;;;;;;4.30;2.40;;;14.00;99.90;;;;;;4952276;28;20444;-74
2022/10/26 05:46:39;;;;;;;4.20;2.30;;;14.00;99.90;;;;;;4951174;29;20402;-75
2022/10/26 05:49:05;;;;;;;4.37;2.50;;;14.00;99.90;;;;;;4950388;29;20397;-74
2022/10/26 05:51:36;;;;;;;6.38;2.38;;;13.80;99.90;;;;;;4952214;28;20420;-75
2022/10/26 05:54:01;;;;;;;4.10;2.20;;;13.90;99.90;;;;;;4950413;28;20409;-74
2022/10/26 05:56:38;;;;;;;3.47;2.20;;;13.90;99.90;;;;;;4951189;29;20386;-74
2022/10/26 05:59:10;;;;;;;4.40;2.00;;;13.90;99.90;;;;;;4952078;28;20924;-74
2022/10/26 06:01:47;;;;;;;4.40;2.10;;;13.90;99.90;;;;;;4951088;28;20405;-74
2022/10/26 06:04:37;;;;;;;6.80;3.20;;;14.00;99.90;;;;;;4952012;28;20417;-75
2022/10/26 06:07:09;;;;;;;4.50;2.70;;;13.90;99.90;;;;;;4951737;28;20405;-75
2022/10/26 06:09:35;;;;;;;6.35;2.47;;;14.00;99.90;;;;;;4950155;28;20410;-75
2022/10/26 06:12:01;;;;;;;5.70;2.53;;;14.10;99.90;;;;;;4951906;28;20844;-74
2022/10/26 06:14:27;;;;;;;5.60;2.17;;;14.20;99.90;;;;;;4951850;28;20480;-75
2022/10/26 06:17:11;;;;;;;5.30;2.40;;;14.40;99.90;;;;;;4951917;28;20607;-75
2022/10/26 06:20:21;;;;;;;4.65;2.55;;;14.50;99.90;;;;;;4951096;28;20416;-74
2022/10/26 06:23:01;;;;;;;6.75;3.20;;;14.50;99.90;;;;;;4938229;28;20868;-74
2022/10/26 06:25:53;;;;;;;6.00;2.60;;;14.40;99.90;;;;;;4947512;28;20503;-75
2022/10/26 06:28:43;;;;;;;8.17;3.10;;;14.30;99.90;;;;;;4933116;29;20510;-75
2022/10/26 06:31:11;;;;;;;6.93;2.97;;;14.20;99.90;;;;;;4944732;29;20417;-74
2022/10/26 06:33:37;;;;;;;10.95;3.60;;;14.10;99.90;;;;;;4951318;29;20413;-74
2022/10/26 06:36:17;;;;;;;10.13;3.27;;;14.20;99.90;;;;;;4951683;28;20390;-74
2022/10/26 06:38:44;;;;;;;12.45;4.40;;;14.20;99.90;;;;;;4951555;28;20476;-75
2022/10/26 06:41:14;;;;;;;12.48;3.47;;;14.10;99.90;;;;;;4951803;28;20752;-75
2022/10/26 06:43:40;;;;;;;7.35;2.70;;;14.20;99.90;;;;;;4951132;28;20382;-74
2022/10/26 06:46:19;;;;;;;4.93;2.55;;;14.20;99.90;;;;;;4951900;28;20445;-74
2022/10/26 06:49:05;;;;;;;4.97;2.38;;;14.20;99.90;;;;;;4951528;28;20402;-74
2022/10/26 06:51:32;;;;;;;5.32;2.28;;;14.10;99.90;;;;;;4951899;28;20390;-74
2022/10/26 06:54:24;;;;;;;4.43;2.70;;;14.10;99.90;;;;;;4951073;28;20408;-75
2022/10/26 06:56:51;;;;;;;6.82;2.83;;;14.20;99.90;;;;;;4951667;29;20452;-74
2022/10/26 06:59:36;;;;;;;4.47;2.45;;;14.20;99.90;;;;;;4951811;28;20541;-74
2022/10/26 07:02:02;;;;;;;8.03;2.57;;;14.40;99.90;;;;;;4950607;28;20405;-74
2022/10/26 07:04:27;;;;;;;5.20;3.20;;;14.40;99.90;;;;;;4951607;28;20401;-74
2022/10/26 07:06:55;;;;;;;6.63;3.20;;;14.60;99.90;;;;;;4952043;28;20768;-75
2022/10/26 07:09:21;;;;;;;4.78;2.83;;;14.60;99.90;;;;;;4950907;29;20412;-74
2022/10/26 07:11:47;;;;;;;10.20;3.60;;;14.60;99.90;;;;;;4951972;28;20417;-74
2022/10/26 07:14:16;;;;;;;4.43;3.03;;;14.70;99.90;;;;;;4951769;28;20394;-75
2022/10/26 07:16:42;;;;;;;8.40;2.90;;;14.70;99.90;;;;;;4951459;28;20561;-74
2022/10/26 07:19:10;;;;;;;5.25;2.70;;;14.70;99.90;;;;;;4953889;29;20406;-75
2022/10/26 07:21:35;;;;;;;5.65;3.15;;;14.90;99.90;;;;;;4955082;28;20756;-75
2022/10/26 07:24:01;;;;;;;8.00;3.20;;;14.90;99.90;;;;;;4954549;28;20408;-75
2022/10/26 07:26:27;;;;;;;6.18;2.95;;;15.00;99.90;;;;;;4954816;29;20416;-75
2022/10/26 07:28:52;;;;;;;7.50;3.40;;;15.10;99.90;;;;;;4953710;28;20457;-74
2022/10/26 07:31:18;;;;;;;6.10;2.90;;;15.30;99.90;;;;;;4954848;28;20390;-74
2022/10/26 07:33:44;;;;;;;11.13;2.90;;;15.40;99.90;;;;;;4954110;28;20433;-74
2022/10/26 07:36:10;;;;;;;4.13;2.75;;;15.50;99.90;;;;;;4953645;28;20386;-74
2022/10/26 07:38:37;;;;;;;4.60;2.53;;;15.60;99.90;;;;;;4954861;28;20764;-74
2022/10/26 07:41:03;;;;;;;6.07;2.72;;;15.60;99.90;;;;;;4953523;28;20398;-74
2022/10/26 07:43:29;;;;;;;6.30;3.03;;;15.60;99.90;;;;;;4954108;28;20443;-75
2022/10/26 07:45:55;;;;;;;5.70;2.85;;;15.60;99.90;;;;;;4954486;28;20432;-74
2022/10/26 07:48:20;;;;;;;5.70;2.83;;;15.60;99.90;;;;;;4954152;28;20475;-74
2022/10/26 07:50:46;;;;;;;6.57;2.90;;;15.70;99.90;;;;;;4954554;28;20398;-75
2022/10/26 07:53:11;;;;;;;6.47;2.78;;;15.70;99.90;;;;;;4953760;28;20425;-75
2022/10/26 07:55:37;;;;;;;5.03;2.90;;;16.10;99.90;;;;;;4953122;29;20398;-75
2022/10/26 07:58:03;;;;;;;7.93;3.27;;;16.20;99.90;;;;;;4946262;28;20915;-76
2022/10/26 08:00:28;;;;;;;6.87;3.40;;;16.20;99.90;;;;;;4950541;28;20943;-76
2022/10/26 08:02:54;;;;;;;5.55;2.92;;;16.10;99.90;;;;;;4950519;28;20434;-76
2022/10/26 08:05:20;;;;;;;6.30;3.90;;;16.10;99.90;;;;;;4948223;28;20509;-76
2022/10/26 08:07:46;;;;;;;4.60;2.65;;;16.10;99.90;;;;;;4949914;28;20828;-76
2022/10/26 08:10:12;;;;;;;7.13;3.30;;;16.40;99.90;;;;;;4949262;28;20417;-76
2022/10/26 08:12:38;;;;;;;8.00;3.10;;;16.40;99.90;;;;;;4952192;29;20414;-76
2022/10/26 08:15:05;;;;;;;7.00;2.80;;;16.40;99.90;;;;;;4953950;28;20448;-76
2022/10/26 08:17:30;;;;;;;7.10;2.85;;;16.80;99.90;;;;;;4952341;29;20824;-76
2022/10/26 08:19:56;;;;;;;6.87;2.97;;;17.30;99.90;;;;;;4953822;28;20394;-76
2022/10/26 08:22:22;;;;;;;8.10;2.60;;;17.70;99.90;;;;;;4953374;28;20569;-75
2022/10/26 08:24:47;;;;;;;6.05;3.17;;;17.70;99.90;;;;;;4955127;28;20905;-76
2022/10/26 08:27:14;;;;;;;6.57;2.80;;;17.90;99.90;;;;;;4962506;28;20416;-76
2022/10/26 08:29:40;;;;;;;6.33;2.90;;;18.30;99.90;;;;;;4952351;28;20455;-75
2022/10/26 08:32:06;;;;;;;8.23;3.20;;;18.50;99.90;;;;;;4959794;28;20427;-76
2022/10/26 08:34:32;;;;;;;5.70;2.53;;;18.60;99.90;;;;;;4951874;28;20903;-76
2022/10/26 08:36:57;;;;;;;7.70;2.53;;;19.00;99.90;;;;;;4952241;28;20425;-76
2022/10/26 08:39:23;;;;;;;9.20;2.80;;;19.00;99.90;;;;;;4953913;28;20382;-76
2022/10/26 08:41:52;;;;;;;8.60;2.80;;;18.90;99.90;;;;;;4953722;28;20444;-75
2022/10/26 08:44:21;;;;;;;8.05;3.22;;;19.00;99.90;;;;;;4967727;28;20453;-76
2022/10/26 08:47:21;;;;;;;9.90;3.00;;;19.00;99.90;;;;;;4951530;29;20476;-75
2022/10/26 08:50:02;;;;;;;4.80;2.20;;;19.10;99.90;;;;;;4951174;29;20926;-74
2022/10/26 08:52:36;;;;;;;6.75;3.15;;;19.20;99.90;;;;;;4950480;28;20426;-74
2022/10/26 08:55:07;;;;;;;8.15;2.55;;;19.20;99.90;;;;;;4950357;29;20413;-76
2022/10/26 08:57:38;;;;;;;6.47;2.80;;;19.20;99.90;;;;;;4948809;29;20482;-76
2022/10/26 09:00:04;;;;;;;8.40;3.20;;;19.20;99.90;;;;;;4950706;28;20405;-76
2022/10/26 09:02:30;;;;;;;8.73;3.00;;;19.00;99.90;;;;;;4952843;28;20475;-76
2022/10/26 09:04:58;;;;;;;6.70;2.70;;;19.20;99.90;;;;;;4952798;29;20413;-75
2022/10/26 09:07:33;;;;;;;9.70;3.00;;;19.20;99.90;;;;;;4951611;28;20410;-76
2022/10/26 09:10:46;;;;;;;9.02;3.08;;;19.10;99.90;;;;;;4952542;28;20404;-75
2022/10/26 09:13:22;;;;;;;8.85;3.10;;;19.10;99.90;;;;;;4941921;28;20426;-75
2022/10/26 09:16:00;;;;;;;7.82;3.20;;;19.20;99.90;;;;;;4951688;29;20405;-76
2022/10/26 09:18:52;;;;;;;9.13;3.70;;;19.30;99.90;;;;;;4953003;28;20417;-75
2022/10/26 09:21:53;;;;;;;6.85;3.10;;;19.20;99.90;;;;;;4951441;28;20414;-75
2022/10/26 09:24:32;;;;;;;9.30;3.60;;;19.30;99.90;;;;;;4936258;29;20903;-75
2022/10/26 09:27:22;;;;;;;13.48;3.20;;;19.50;99.90;;;;;;4952792;28;20429;-75
2022/10/26 09:29:50;;;;;;;5.20;3.10;;;19.60;99.90;;;;;;4952639;28;20409;-76
2022/10/26 09:32:23;;;;;;;7.60;2.72;;;19.70;99.90;;;;;;4951203;28;20507;-75
2022/10/26 09:34:54;;;;;;;7.00;2.97;;;19.80;99.90;;;;;;4952715;28;20394;-75
2022/10/26 09:37:30;;;;;;;4.25;2.60;;;20.00;99.90;;;;;;4952753;28;20429;-75
2022/10/26 09:40:19;;;;;;;4.30;2.40;;;20.20;99.90;;;;;;4951915;28;20406;-75
2022/10/26 09:43:00;;;;;;;6.45;2.30;;;20.40;99.90;;;;;;4952194;28;20398;-76
2022/10/26 09:45:46;;;;;;;11.63;2.90;;;20.50;99.90;;;;;;4949632;28;20483;-76
2022/10/26 09:48:32;;;;;;;4.65;2.33;;;20.60;99.90;;;;;;4948501;28;20413;-75
2022/10/26 09:50:59;;;;;;;5.15;2.30;;;20.60;99.90;;;;;;4945996;29;20422;-75
2022/10/26 09:53:25;;;;;;;6.75;2.70;;;20.60;99.90;;;;;;4948369;28;20469;-75
2022/10/26 09:56:09;;;;;;;6.80;2.50;;;20.60;99.90;;;;;;4947697;28;20445;-74
2022/10/26 09:58:49;;;;;;;7.85;2.75;;;20.60;99.90;;;;;;4950584;28;21020;-76
2022/10/26 10:01:41;;;;;;;8.10;2.58;;;20.50;99.90;;;;;;4950234;28;20420;-74
2022/10/26 10:04:12;;;;;;;4.45;2.00;;;20.60;99.90;;;;;;4948462;28;20416;-73
2022/10/26 10:06:39;;;;;;;5.90;2.20;;;20.50;99.90;;;;;;4951257;28;20448;-74
2022/10/26 10:09:18;;;;;;;5.05;2.33;;;20.40;99.90;;;;;;4949789;28;20498;-74
2022/10/26 10:12:00;;;;;;;6.00;2.30;;;20.50;99.90;;;;;;4940641;29;20421;-75
2022/10/26 10:14:32;;;;;;;9.13;3.33;;;20.50;99.90;;;;;;4950747;28;20820;-74
2022/10/26 10:17:01;;;;;;;6.45;2.40;;;20.60;99.90;;;;;;4948304;28;20449;-74
2022/10/26 10:19:29;;;;;;;8.40;2.67;;;20.70;99.90;;;;;;4949817;29;20421;-73
2022/10/26 10:21:58;;;;;;;5.25;2.70;;;20.90;99.90;;;;;;4949965;28;20438;-73
2022/10/26 10:24:35;;;;;;;6.13;3.03;;;20.90;99.90;;;;;;4949118;28;20540;-74
2022/10/26 10:27:02;;;;;;;6.80;2.70;;;20.90;99.90;;;;;;4951573;28;20397;-74
2022/10/26 10:29:49;;;;;;;6.90;2.87;;;20.90;99.90;;;;;;4950742;29;20409;-74
2022/10/26 10:32:21;;;;;;;8.98;2.72;;;20.90;99.90;;;;;;4950338;28;20554;-72
2022/10/26 10:34:52;;;;;;;6.38;2.70;;;21.00;99.90;;;;;;4952675;28;20402;-74
2022/10/26 10:37:31;;;;;;;6.50;3.00;;;21.10;99.90;;;;;;4959602;28;20406;-73
2022/10/26 10:39:59;;;;;;;5.53;2.80;;;21.10;99.90;;;;;;4951049;28;20938;-74
2022/10/26 10:42:34;;;;;;;10.00;2.70;;;21.30;99.90;;;;;;4971028;28;20730;-73
2022/10/26 10:45:01;;;;;;;8.98;3.60;;;21.30;99.90;;;;;;4965878;28;20764;-73
2022/10/26 10:47:30;;;;;;;9.43;3.70;;;21.20;99.90;;;;;;4951790;28;20401;-73
2022/10/26 10:50:03;;;;;;;9.85;3.50;;;21.00;99.90;;;;;;4950423;28;20398;-73
2022/10/26 10:52:31;;;;;;;14.80;3.90;;;20.90;99.90;;;;;;4975896;23;20519;-74
2022/10/26 10:55:05;;;;;;;9.73;3.97;;;21.10;99.90;;;;;;4970250;28;20992;-74
2022/10/26 10:57:50;;;;;;;8.02;3.53;;;21.30;99.90;;;;;;4964234;28;20413;-74
2022/10/26 11:00:17;;;;;;;9.60;3.30;;;21.60;99.90;;;;;;4952412;28;20499;-74
2022/10/26 11:03:09;;;;;;;9.40;3.88;;;22.00;99.90;;;;;;4952167;28;20828;-75
2022/10/26 11:05:47;;;;;;;9.53;3.40;;;22.50;99.90;;;;;;4950810;28;20440;-75
2022/10/26 11:08:20;;;;;;;9.68;3.40;;;23.10;98.00;;;;;;4952661;29;20393;-74
2022/10/26 11:11:06;;;;;;;8.65;3.35;;;23.60;97.30;;;;;;4954893;29;20489;-76
2022/10/26 11:13:34;;;;;;;9.52;3.80;;;24.10;94.80;;;;;;4943701;28;20423;-74
2022/10/26 11:16:04;;;;;;;7.22;3.10;;;24.40;93.00;;;;;;4953608;28;20406;-75
2022/10/26 11:18:42;;;;;;;8.80;3.10;;;24.50;92.40;;;;;;4954882;28;20421;-75
2022/10/26 11:21:27;;;;;;;9.65;3.03;;;24.70;90.60;;;;;;4955376;28;20406;-75
2022/10/26 11:24:14;;;;;;;10.00;3.80;;;24.90;90.70;;;;;;4953928;28;20394;-75
2022/10/26 11:27:07;;;;;;;8.85;3.70;;;25.00;89.50;;;;;;4953966;28;20899;-75
2022/10/26 11:29:42;;;;;;;7.85;2.88;;;25.30;88.20;;;;;;4956252;28;20468;-75
2022/10/26 11:32:21;;;;;;;8.68;3.50;;;24.60;90.00;;;;;;4953250;28;20414;-75
2022/10/26 11:34:50;;;;;;;9.65;2.92;;;24.90;87.50;;;;;;4954483;28;20808;-75
2022/10/26 11:37:33;;;;;;;10.63;2.97;;;24.80;88.40;;;;;;4954567;28;20466;-75
2022/10/26 11:40:11;;;;;;;6.60;2.60;;;25.20;86.50;;;;;;4954625;28;20398;-76
2022/10/26 11:42:45;;;;;;;8.75;2.72;;;25.20;87.00;;;;;;4952774;29;20562;-74
2022/10/26 11:45:23;;;;;;;10.00;3.22;;;25.30;85.60;;;;;;4953561;29;20397;-75
2022/10/26 11:48:00;;;;;;;8.85;3.50;;;25.60;83.60;;;;;;4953429;28;20436;-75
2022/10/26 11:50:32;;;;;;;5.03;2.40;;;25.80;82.30;;;;;;4953181;28;20398;-74
2022/10/26 11:53:19;;;;;;;6.93;2.60;;;26.00;82.40;;;;;;4953553;28;20839;-74
2022/10/26 11:55:50;;;;;;;7.57;2.80;;;25.80;81.40;;;;;;4953968;28;20406;-75
2022/10/26 11:58:16;;;;;;;6.00;2.50;;;25.50;81.60;;;;;;4954284;28;20405;-74
2022/10/26 12:00:50;;;;;;;6.55;3.05;;;25.10;80.90;;;;;;4954369;28;20401;-74
2022/10/26 12:03:22;;;;;;;8.00;2.80;;;25.70;81.10;;;;;;4953206;28;20386;-76
2022/10/26 12:05:50;;;;;;;6.75;2.40;;;25.80;80.40;;;;;;4952738;28;20401;-74
2022/10/26 12:08:39;;;;;;;9.50;3.20;;;25.50;81.50;;;;;;4952630;29;20453;-76
2022/10/26 12:11:35;;;;;;;9.88;2.90;;;25.10;83.20;;;;;;4949409;29;20428;-75
2022/10/26 12:14:24;;;;;;;5.75;2.80;;;25.60;82.90;;;;;;4950276;28;20417;-75
2022/10/26 12:17:02;;;;;;;7.13;2.33;;;24.90;83.80;;;;;;4964023;28;20407;-75
2022/10/26 12:19:40;;;;;;;8.13;2.80;;;24.40;86.30;;;;;;4969653;28;20410;-75
2022/10/26 12:22:10;;;;;;;5.63;2.50;;;24.50;86.90;;;;;;4949257;29;20760;-75
2022/10/26 12:24:43;;;;;;;7.15;2.95;;;24.40;88.70;;;;;;4948873;28;20899;-75
2022/10/26 12:27:28;;;;;;;7.83;3.40;;;24.10;88.10;;;;;;4951683;28;20422;-76
2022/10/26 12:30:14;;;;;;;5.93;3.00;;;23.60;88.50;;;;;;4949615;29;20549;-75
2022/10/26 12:32:40;;;;;;;6.87;2.50;;;23.70;90.50;;;;;;4946276;29;20599;-75
2022/10/26 12:35:38;;;;;;;7.93;2.60;;;23.40;90.30;;;;;;4953308;28;20488;-75
2022/10/26 12:38:22;;;;;;;4.97;2.60;;;23.30;92.00;;;;;;4949644;28;20405;-75
2022/10/26 12:41:07;;;;;;;5.45;2.60;;;23.20;92.30;;;;;;4952865;28;21174;-76
2022/10/26 12:43:34;;;;;;;6.80;2.50;;;23.20;91.40;;;;;;4951849;28;20456;-76
2022/10/26 12:46:12;;;;;;;6.15;2.67;;;23.40;91.20;;;;;;4953324;28;21072;-77
2022/10/26 12:48:43;;;;;;;6.68;2.72;;;23.40;92.60;;;;;;4952845;28;20414;-76
2022/10/26 12:51:23;;;;;;;6.10;3.23;;;23.40;91.90;;;;;;4953218;28;20400;-76
2022/10/26 12:54:27;;;;;;;6.57;2.40;;;23.50;92.20;;;;;;4949477;28;20417;-75
2022/10/26 12:57:06;;;;;;;5.13;2.90;;;23.30;92.20;;;;;;4954251;28;20883;-74
2022/10/26 12:59:42;;;;;;;6.32;2.60;;;23.60;92.20;;;;;;4956932;28;20400;-73
2022/10/26 13:02:33;;;;;;;7.88;3.25;;;23.60;92.10;;;;;;4949042;29;20435;-73
2022/10/26 13:05:27;;;;;;;6.22;3.13;;;23.50;91.40;;;;;;4953225;28;20459;-74
2022/10/26 13:08:08;;;;;;;7.53;2.72;;;23.60;91.10;;;;;;4973114;28;20887;-74
2022/10/26 13:10:35;;;;;;;5.70;2.88;;;23.50;91.80;;;;;;4952915;28;20923;-74
2022/10/26 13:13:04;;;;;;;5.45;2.65;;;23.70;92.10;;;;;;4952578;28;20425;-73